createdAt,value
2024-02-24T00:01:21.051Z,98882.63
2024-02-24T00:03:47.726Z,98887.41
2024-02-24T00:06:14.335Z,98878.94
2024-02-24T00:08:41.214Z,98883.34
2024-02-24T00:11:08.017Z,98890.19
2024-02-24T00:13:34.845Z,98890.00
2024-02-24T00:16:04.349Z,98894.13
2024-02-24T00:18:31.134Z,98888.59
2024-02-24T00:20:57.865Z,98885.75
2024-02-24T00:23:24.703Z,98880.81
2024-02-24T00:25:51.271Z,98880.53
2024-02-24T00:28:23.822Z,98884.75
2024-02-24T00:30:50.501Z,98885.72
2024-02-24T00:33:25.994Z,98878.81
2024-02-24T00:35:53.003Z,98880.50
2024-02-24T00:38:19.639Z,98871.03
2024-02-24T00:40:46.331Z,98869.81
2024-02-24T00:43:15.675Z,98877.16
2024-02-24T00:45:42.321Z,98870.69
2024-02-24T00:48:08.949Z,98881.97
2024-02-24T00:50:35.644Z,98880.09
2024-02-24T00:53:02.548Z,98887.44
2024-02-24T00:55:29.248Z,98890.13
2024-02-24T00:57:55.906Z,98887.16
2024-02-24T01:00:24.984Z,98886.78
2024-02-24T01:02:54.747Z,98893.00
2024-02-24T01:05:21.439Z,98888.53
2024-02-24T01:07:48.109Z,98885.72
2024-02-24T01:10:15.131Z,98889.81
2024-02-24T01:12:41.722Z,98891.13
2024-02-24T01:15:08.836Z,98893.19
2024-02-24T01:17:35.604Z,98887.09
2024-02-24T01:20:03.270Z,98878.44
2024-02-24T01:22:35.322Z,98881.41
2024-02-24T01:25:03.277Z,98887.53
2024-02-24T01:27:29.899Z,98886.13
2024-02-24T01:29:56.612Z,98882.56
2024-02-24T01:32:23.351Z,98887.44
2024-02-24T01:34:50.072Z,98884.44
2024-02-24T01:37:16.695Z,98887.44
2024-02-24T01:39:43.368Z,98881.31
2024-02-24T01:42:10.540Z,98871.75
2024-02-24T01:44:37.236Z,98873.31
2024-02-24T01:47:03.990Z,98879.44
2024-02-24T01:49:33.234Z,98872.66
2024-02-24T01:52:03.595Z,98871.03
2024-02-24T01:54:30.610Z,98869.97
2024-02-24T01:56:58.176Z,98868.13
2024-02-24T01:59:25.165Z,98866.94
2024-02-24T02:01:51.957Z,98861.34
2024-02-24T02:04:18.657Z,98860.72
2024-02-24T02:06:45.342Z,98847.34
2024-02-24T02:09:12.017Z,98851.69
2024-02-24T02:11:48.006Z,98855.84
2024-02-24T02:14:23.063Z,98857.59
2024-02-24T02:16:49.753Z,98851.91
2024-02-24T02:19:16.428Z,98854.16
2024-02-24T02:21:43.196Z,98853.88
2024-02-24T02:24:10.630Z,98851.13
2024-02-24T02:26:37.244Z,98844.50
2024-02-24T02:29:03.892Z,98849.09
2024-02-24T02:31:30.436Z,98851.97
2024-02-24T02:33:57.248Z,98855.91
2024-02-24T02:36:23.896Z,98854.41
2024-02-24T02:38:50.606Z,98858.56
2024-02-24T02:41:17.321Z,98859.66
2024-02-24T02:43:44.027Z,98858.47
2024-02-24T02:46:10.595Z,98847.75
2024-02-24T02:48:37.369Z,98847.03
2024-02-24T02:51:04.083Z,98843.75
2024-02-24T02:53:30.812Z,98854.72
2024-02-24T02:55:57.426Z,98853.53
2024-02-24T02:58:24.142Z,98858.50
2024-02-24T03:00:50.763Z,98856.84
2024-02-24T03:03:17.471Z,98849.66
2024-02-24T03:05:44.838Z,98852.19
2024-02-24T03:08:11.551Z,98850.56
2024-02-24T03:10:38.267Z,98857.19
2024-02-24T03:13:04.914Z,98859.06
2024-02-24T03:15:32.113Z,98863.34
2024-02-24T03:17:58.851Z,98867.28
2024-02-24T03:20:25.531Z,98869.13
2024-02-24T03:22:52.250Z,98881.56
2024-02-24T03:25:18.832Z,98869.75
2024-02-24T03:27:45.517Z,98872.50
2024-02-24T03:30:12.418Z,98880.78
2024-02-24T03:32:39.128Z,98876.19
2024-02-24T03:35:06.224Z,98887.06
2024-02-24T03:37:34.497Z,98885.16
2024-02-24T03:40:01.122Z,98880.22
2024-02-24T03:42:27.878Z,98885.09
2024-02-24T03:44:54.534Z,98886.50
2024-02-24T03:47:23.878Z,98882.81
2024-02-24T03:49:50.520Z,98887.84
2024-02-24T03:52:17.191Z,98888.97
2024-02-24T03:54:43.837Z,98879.44
2024-02-24T03:57:10.499Z,98888.22
2024-02-24T03:59:37.138Z,98886.06
2024-02-24T04:02:04.618Z,98889.91
2024-02-24T04:04:31.304Z,98886.63
2024-02-24T04:06:57.990Z,98894.53
2024-02-24T04:49:53.163Z,98927.75
2024-02-24T04:52:19.847Z,98928.38
2024-02-24T04:54:46.738Z,98926.44
2024-02-24T04:57:13.379Z,98923.13
2024-02-24T04:59:40.223Z,98921.53
2024-02-24T05:02:06.952Z,98919.25
2024-02-24T05:04:34.165Z,98924.13
2024-02-24T05:07:00.907Z,98928.50
2024-02-24T05:09:27.628Z,98924.97
2024-02-24T05:11:54.823Z,98928.13
2024-02-24T05:14:21.479Z,98923.66
2024-02-24T05:16:48.129Z,98928.59
2024-02-24T05:19:14.890Z,98931.56
2024-02-24T05:21:41.633Z,98937.56
2024-02-24T05:24:08.453Z,98921.03
2024-02-24T05:26:35.164Z,98928.97
2024-02-24T05:29:04.420Z,98929.47
2024-02-24T05:31:31.070Z,98930.81
2024-02-24T05:33:57.970Z,98926.69
2024-02-24T05:36:25.370Z,98923.88
2024-02-24T05:38:51.965Z,98933.00
2024-02-24T05:41:18.600Z,98942.97
2024-02-24T05:43:45.296Z,98933.63
2024-02-24T05:46:16.665Z,98937.38
2024-02-24T05:48:43.362Z,98933.38
2024-02-24T05:51:10.704Z,98934.47
2024-02-24T05:53:40.131Z,98935.31
2024-02-24T05:56:06.948Z,98943.22
2024-02-24T05:58:33.623Z,98958.31
2024-02-24T06:01:03.921Z,98954.88
2024-02-24T06:03:30.799Z,98957.22
2024-02-24T06:05:57.518Z,98949.44
2024-02-24T06:08:24.268Z,98949.91
2024-02-24T06:10:52.789Z,98951.38
2024-02-24T06:13:22.616Z,98953.38
2024-02-24T06:15:49.292Z,98958.69
2024-02-24T06:18:17.075Z,98959.88
2024-02-24T06:20:43.959Z,98969.88
2024-02-24T06:23:10.595Z,98966.31
2024-02-24T06:25:39.937Z,98960.84
2024-02-24T06:28:13.919Z,98972.53
2024-02-24T06:30:41.417Z,98962.81
2024-02-24T06:33:09.003Z,98980.44
2024-02-24T06:35:35.952Z,98974.84
2024-02-24T06:38:02.693Z,98977.63
2024-02-24T06:40:37.301Z,98978.00
2024-02-24T06:43:11.668Z,98977.91
2024-02-24T06:45:38.432Z,98971.88
2024-02-24T06:48:05.455Z,98968.81
2024-02-24T06:50:32.135Z,98976.38
2024-02-24T06:52:58.793Z,98978.00
2024-02-24T06:55:25.568Z,98976.59
2024-02-24T06:57:55.203Z,98986.53
2024-02-24T07:00:23.027Z,98980.66
2024-02-24T07:02:50.543Z,98973.16
2024-02-24T07:05:17.388Z,98983.53
2024-02-24T07:07:44.170Z,98992.03
2024-02-24T07:10:10.944Z,98987.88
2024-02-24T07:12:40.867Z,98998.81
2024-02-24T07:15:10.220Z,99010.50
2024-02-24T07:17:36.904Z,99011.94
2024-02-24T07:20:04.567Z,99007.28
2024-02-24T07:22:31.238Z,99016.28
2024-02-24T07:24:57.916Z,99016.53
2024-02-24T07:27:24.630Z,99024.34
2024-02-24T07:29:53.740Z,99026.22
2024-02-24T07:32:20.758Z,99043.88
2024-02-24T07:34:47.498Z,99046.41
2024-02-24T07:37:14.267Z,99040.94
2024-02-24T07:39:40.909Z,99054.41
2024-02-24T07:42:07.870Z,99056.84
2024-02-24T07:44:34.570Z,99053.06
2024-02-24T07:47:02.056Z,99052.28
2024-02-24T07:49:28.781Z,99063.16
2024-02-24T07:51:55.509Z,99061.38
2024-02-24T07:54:22.530Z,99060.28
2024-02-24T07:56:49.242Z,99055.88
2024-02-24T07:59:16.244Z,99057.34
2024-02-24T08:01:42.997Z,99058.56
2024-02-24T08:04:09.861Z,99059.22
2024-02-24T08:06:36.748Z,99070.47
2024-02-24T08:09:03.446Z,99070.28
2024-02-24T08:11:35.941Z,99070.72
2024-02-24T08:14:04.445Z,99060.91
2024-02-24T08:16:31.255Z,99061.78
2024-02-24T08:18:58.043Z,99065.78
2024-02-24T08:21:25.263Z,99066.16
2024-02-24T08:23:53.375Z,99071.88
2024-02-24T08:26:20.018Z,99078.34
2024-02-24T08:28:46.627Z,99078.03
2024-02-24T08:31:13.244Z,99068.84
2024-02-24T08:33:43.333Z,99082.63
2024-02-24T08:36:10.454Z,99084.25
2024-02-24T08:38:40.085Z,99085.16
2024-02-24T08:41:07.120Z,99086.72
2024-02-24T08:43:33.741Z,99092.88
2024-02-24T08:46:00.569Z,99093.69
2024-02-24T08:48:28.209Z,99085.22
2024-02-24T08:50:55.213Z,99084.41
2024-02-24T08:53:22.000Z,99091.41
2024-02-24T08:55:48.767Z,99080.66
2024-02-24T08:58:15.328Z,99092.63
2024-02-24T09:00:42.159Z,99097.34
2024-02-24T09:03:09.012Z,99103.63
2024-02-24T09:05:36.418Z,99103.31
2024-02-24T09:08:03.070Z,99116.59
2024-02-24T09:10:29.754Z,99113.19
2024-02-24T09:12:56.521Z,99115.38
2024-02-24T09:15:23.193Z,99114.88
2024-02-24T09:17:49.810Z,99126.28
2024-02-24T09:20:16.594Z,99134.69
2024-02-24T09:22:44.135Z,99136.13
2024-02-24T09:25:17.464Z,99131.88
2024-02-24T09:27:47.067Z,99134.44
2024-02-24T09:30:14.275Z,99136.75
2024-02-24T09:32:41.654Z,99134.38
2024-02-24T09:35:09.534Z,99139.69
2024-02-24T09:37:36.235Z,99134.59
2024-02-24T09:40:05.259Z,99133.94
2024-02-24T09:42:31.839Z,99127.13
2024-02-24T09:44:59.930Z,99129.84
2024-02-24T09:47:27.517Z,99127.06
2024-02-24T09:49:55.145Z,99128.50
2024-02-24T09:52:21.953Z,99117.59
2024-02-24T09:54:48.648Z,99126.47
2024-02-24T09:57:16.973Z,99122.69
2024-02-24T09:59:45.329Z,99132.63
2024-02-24T10:02:15.579Z,99133.72
2024-02-24T10:04:43.926Z,99144.78
2024-02-24T10:07:10.633Z,99146.34
2024-02-24T10:09:37.892Z,99155.19
2024-02-24T10:12:07.321Z,99171.44
2024-02-24T10:14:34.454Z,99171.47
2024-02-24T10:17:01.362Z,99168.38
2024-02-24T10:19:29.351Z,99169.69
2024-02-24T10:21:55.987Z,99179.81
2024-02-24T10:24:22.638Z,99185.91
2024-02-24T10:26:52.950Z,99180.66
2024-02-24T10:29:21.496Z,99187.69
2024-02-24T10:31:49.109Z,99192.13
2024-02-24T10:34:15.885Z,99192.84
2024-02-24T10:36:43.707Z,99194.50
2024-02-24T10:39:10.905Z,99193.84
2024-02-24T10:41:37.666Z,99196.03
2024-02-24T10:44:18.308Z,99186.78
2024-02-24T10:46:50.605Z,99192.50
2024-02-24T10:49:17.425Z,99187.38
2024-02-24T10:51:47.625Z,99193.97
2024-02-24T10:54:17.565Z,99180.59
2024-02-24T10:56:44.908Z,99200.56
2024-02-24T10:59:12.823Z,99193.09
2024-02-24T11:01:44.051Z,99187.78
2024-02-24T11:04:12.184Z,99193.47
2024-02-24T11:06:53.806Z,99194.97
2024-02-24T11:09:33.306Z,99189.44
2024-02-24T11:12:04.929Z,99188.66
2024-02-24T11:14:32.614Z,99179.19
2024-02-24T11:16:59.916Z,99173.81
2024-02-24T11:19:46.195Z,99189.56
2024-02-24T11:22:19.773Z,99191.72
2024-02-24T11:24:49.319Z,99202.28
2024-02-24T11:27:15.904Z,99196.66
2024-02-24T11:29:42.716Z,99204.63
2024-02-24T11:32:13.433Z,99198.34
2024-02-24T11:34:45.120Z,99192.38
2024-02-24T11:37:19.007Z,99177.72
2024-02-24T11:39:48.300Z,99172.88
2024-02-24T11:42:15.450Z,99173.09
2024-02-24T11:44:49.203Z,99176.66
2024-02-24T11:47:19.038Z,99178.81
2024-02-24T11:49:46.761Z,99184.19
2024-02-24T11:52:14.026Z,99175.06
2024-02-24T11:54:41.181Z,99172.78
2024-02-24T11:57:14.450Z,99182.88
2024-02-24T11:59:41.801Z,99182.94
2024-02-24T12:02:08.660Z,99185.94
2024-02-24T12:04:35.494Z,99197.00
2024-02-24T12:07:03.317Z,99199.72
2024-02-24T12:09:30.407Z,99202.56
2024-02-24T12:11:58.236Z,99208.06
2024-02-24T12:14:27.602Z,99200.88
2024-02-24T12:17:01.003Z,99204.16
2024-02-24T12:19:31.253Z,99208.72
2024-02-24T12:21:57.971Z,99202.25
2024-02-24T12:24:28.374Z,99205.72
2024-02-24T12:26:59.231Z,99204.28
2024-02-24T12:29:26.018Z,99215.63
2024-02-24T12:31:57.031Z,99204.47
2024-02-24T12:34:25.312Z,99196.38
2024-02-24T12:36:56.003Z,99202.22
2024-02-24T12:39:22.688Z,99200.00
2024-02-24T12:41:49.291Z,99199.13
2024-02-24T12:44:16.896Z,99201.69
2024-02-24T12:46:43.572Z,99201.72
2024-02-24T12:49:12.823Z,99191.41
2024-02-24T12:51:39.612Z,99193.72
2024-02-24T12:54:06.471Z,99203.72
2024-02-24T12:56:33.105Z,99199.16
2024-02-24T12:59:01.521Z,99200.41
2024-02-24T13:01:28.247Z,99203.69
2024-02-24T13:03:55.643Z,99202.31
2024-02-24T13:06:22.480Z,99203.38
2024-02-24T13:08:54.983Z,99208.56
2024-02-24T13:11:21.935Z,99206.28
2024-02-24T13:13:48.562Z,99200.63
2024-02-24T13:16:15.262Z,99217.41
2024-02-24T13:18:42.074Z,99211.78
2024-02-24T13:21:08.879Z,99203.38
2024-02-24T13:23:35.600Z,99204.16
2024-02-24T13:26:02.228Z,99207.25
2024-02-24T13:28:28.825Z,99199.88
2024-02-24T13:30:55.841Z,99209.84
2024-02-24T13:33:22.563Z,99202.06
2024-02-24T13:35:49.866Z,99204.13
2024-02-24T13:38:17.881Z,99206.25
2024-02-24T13:40:44.528Z,99210.75
2024-02-24T13:43:15.597Z,99216.03
2024-02-24T13:45:42.706Z,99210.16
2024-02-24T13:48:09.509Z,99210.28
2024-02-24T13:50:36.468Z,99209.88
2024-02-24T13:53:06.354Z,99214.78
2024-02-24T13:55:33.100Z,99222.88
2024-02-24T13:58:04.141Z,99235.38
2024-02-24T14:00:30.886Z,99252.97
2024-02-24T14:03:02.940Z,99250.88
2024-02-24T14:05:36.810Z,99273.38
2024-02-24T14:08:04.895Z,99263.44
2024-02-24T14:10:31.560Z,99264.94
2024-02-24T14:13:01.237Z,99266.75
2024-02-24T14:15:27.826Z,99266.03
2024-02-24T14:18:00.458Z,99264.59
2024-02-24T14:20:35.084Z,99271.03
2024-02-24T14:23:04.740Z,99273.03
2024-02-24T14:25:33.599Z,99274.38
2024-02-24T14:28:03.512Z,99276.91
2024-02-24T14:30:30.126Z,99261.38
2024-02-24T14:32:56.869Z,99261.16
2024-02-24T14:35:24.270Z,99252.78
2024-02-24T14:37:51.028Z,99262.38
2024-02-24T14:40:17.767Z,99270.69
2024-02-24T14:42:45.089Z,99265.97
2024-02-24T14:45:11.717Z,99282.94
2024-02-24T14:47:39.038Z,99283.94
2024-02-24T14:50:05.957Z,99285.03
2024-02-24T14:52:39.897Z,99292.47
2024-02-24T14:55:06.876Z,99293.53
2024-02-24T14:57:39.577Z,99289.59
2024-02-24T15:00:10.497Z,99291.63
2024-02-24T15:02:48.359Z,99300.19
2024-02-24T15:05:19.917Z,99302.44
2024-02-24T15:07:54.103Z,99306.41
2024-02-24T15:10:21.716Z,99303.81
2024-02-24T15:12:48.615Z,99307.72
2024-02-24T15:15:15.381Z,99307.59
2024-02-24T15:17:44.977Z,99301.94
2024-02-24T15:20:11.931Z,99312.94
2024-02-24T15:22:38.978Z,99308.66
2024-02-24T15:25:08.540Z,99326.50
2024-02-24T15:27:35.209Z,99315.03
2024-02-24T15:30:02.253Z,99323.41
2024-02-24T15:32:29.219Z,99324.59
2024-02-24T15:34:56.021Z,99327.00
2024-02-24T15:37:25.690Z,99333.63
2024-02-24T15:39:52.338Z,99331.91
2024-02-24T15:42:21.746Z,99333.59
2024-02-24T15:44:48.513Z,99331.00
2024-02-24T15:47:15.146Z,99330.53
2024-02-24T15:49:41.958Z,99337.38
2024-02-24T15:52:08.611Z,99343.66
2024-02-24T15:54:35.906Z,99351.44
2024-02-24T15:57:02.718Z,99340.91
2024-02-24T15:59:29.585Z,99352.72
2024-02-24T16:01:56.288Z,99357.50
2024-02-24T16:04:22.983Z,99356.22
2024-02-24T16:06:49.764Z,99364.72
2024-02-24T16:09:16.445Z,99364.97
2024-02-24T16:11:43.140Z,99365.34
2024-02-24T16:14:12.354Z,99364.69
2024-02-24T16:16:39.949Z,99375.22
2024-02-24T16:19:09.824Z,99379.41
2024-02-24T16:21:41.626Z,99385.75
2024-02-24T16:24:10.691Z,99387.50
2024-02-24T16:26:37.370Z,99388.06
2024-02-24T16:29:09.075Z,99393.03
2024-02-24T16:31:35.724Z,99406.19
2024-02-24T16:34:02.577Z,99408.66
2024-02-24T16:36:29.403Z,99410.19
2024-02-24T16:38:57.113Z,99409.44
2024-02-24T16:41:24.413Z,99413.38
2024-02-24T16:43:51.062Z,99415.75
2024-02-24T16:46:17.734Z,99434.97
2024-02-24T16:48:45.311Z,99426.53
2024-02-24T16:51:12.182Z,99434.78
2024-02-24T16:53:38.936Z,99432.91
2024-02-24T16:56:05.927Z,99439.88
2024-02-24T16:58:32.668Z,99444.06
2024-02-24T17:00:59.709Z,99452.13
2024-02-24T17:03:28.065Z,99457.13
2024-02-24T17:05:55.065Z,99465.56
2024-02-24T17:08:24.206Z,99467.72
2024-02-24T17:10:52.050Z,99468.00
2024-02-24T17:13:18.708Z,99466.59
2024-02-24T17:15:45.492Z,99474.38
2024-02-24T17:18:18.326Z,99470.63
2024-02-24T17:20:48.155Z,99481.50
2024-02-24T17:23:15.544Z,99480.94
2024-02-24T17:25:42.491Z,99484.19
2024-02-24T17:28:10.362Z,99492.13
2024-02-24T17:30:37.245Z,99493.00
2024-02-24T17:33:07.401Z,99498.28
2024-02-24T17:35:35.664Z,99502.81
2024-02-24T17:38:03.754Z,99520.56
2024-02-24T17:40:30.525Z,99518.84
2024-02-24T17:42:58.474Z,99521.84
2024-02-24T17:45:27.478Z,99528.69
2024-02-24T17:47:54.152Z,99529.16
2024-02-24T17:50:20.942Z,99535.81
2024-02-24T17:52:47.623Z,99529.91
2024-02-24T17:55:16.225Z,99545.13
2024-02-24T17:57:44.865Z,99541.63
2024-02-24T18:00:12.037Z,99533.84
2024-02-24T18:02:40.167Z,99545.81
2024-02-24T18:05:07.177Z,99538.25
2024-02-24T18:07:33.832Z,99540.97
2024-02-24T18:10:00.613Z,99532.81
2024-02-24T18:12:36.699Z,99539.59
2024-02-24T18:15:04.118Z,99540.63
2024-02-24T18:17:30.748Z,99546.19
2024-02-24T18:19:57.400Z,99544.31
2024-02-24T18:22:24.207Z,99542.22
2024-02-24T18:24:51.518Z,99546.19
2024-02-24T18:27:18.150Z,99548.59
2024-02-24T18:29:47.951Z,99547.59
2024-02-24T18:32:14.720Z,99541.53
2024-02-24T18:34:41.790Z,99549.69
2024-02-24T18:37:08.553Z,99559.09
2024-02-24T18:39:35.446Z,99554.44
2024-02-24T18:42:02.151Z,99562.03
2024-02-24T18:44:31.083Z,99557.88
2024-02-24T18:46:58.072Z,99552.47
2024-02-24T18:49:29.057Z,99562.13
2024-02-24T18:51:59.622Z,99553.72
2024-02-24T18:54:27.705Z,99557.88
2024-02-24T18:56:54.676Z,99555.09
2024-02-24T18:59:23.645Z,99558.97
2024-02-24T19:01:50.327Z,99560.81
2024-02-24T19:04:24.711Z,99563.97
2024-02-24T19:06:57.718Z,99563.94
2024-02-24T19:09:25.101Z,99571.78
2024-02-24T19:11:54.103Z,99563.94
2024-02-24T19:14:21.335Z,99567.56
2024-02-24T19:16:51.288Z,99568.03
2024-02-24T19:19:18.044Z,99572.06
2024-02-24T19:21:46.217Z,99565.69
2024-02-24T19:24:13.252Z,99565.09
2024-02-24T19:26:40.685Z,99572.75
2024-02-24T19:29:07.801Z,99586.22
2024-02-24T19:31:34.849Z,99575.19
2024-02-24T19:34:01.839Z,99575.03
2024-02-24T19:36:29.278Z,99572.47
2024-02-24T19:39:10.744Z,99576.25
2024-02-24T19:41:45.176Z,99577.66
2024-02-24T19:44:11.830Z,99571.53
2024-02-24T19:46:41.192Z,99577.28
2024-02-24T19:49:09.942Z,99574.81
2024-02-24T19:51:37.587Z,99572.66
2024-02-24T19:54:06.649Z,99569.19
2024-02-24T19:56:33.478Z,99578.59
2024-02-24T19:59:00.109Z,99572.84
2024-02-24T20:01:27.034Z,99570.78
2024-02-24T20:03:53.793Z,99567.72
2024-02-24T20:06:20.736Z,99572.28
2024-02-24T20:08:47.554Z,99564.56
2024-02-24T20:11:14.438Z,99574.72
2024-02-24T20:13:46.489Z,99570.38
2024-02-24T20:16:13.819Z,99574.34
2024-02-24T20:18:40.823Z,99569.84
2024-02-24T20:21:07.697Z,99586.47
2024-02-24T20:23:34.339Z,99587.34
2024-02-24T20:26:03.464Z,99591.56
2024-02-24T20:28:30.285Z,99592.09
2024-02-24T20:30:57.000Z,99595.78
2024-02-24T20:33:23.802Z,99592.84
2024-02-24T20:35:52.971Z,99595.69
2024-02-24T20:38:19.926Z,99595.97
2024-02-24T20:40:47.895Z,99601.38
2024-02-24T20:43:14.703Z,99606.19
2024-02-24T20:45:41.346Z,99609.31
2024-02-24T20:48:10.640Z,99613.72
2024-02-24T20:50:37.482Z,99601.94
2024-02-24T20:53:05.164Z,99596.75
2024-02-24T20:55:31.775Z,99604.91
2024-02-24T20:57:58.350Z,99608.63
2024-02-24T21:00:36.757Z,99603.09
2024-02-24T21:03:03.620Z,99602.28
2024-02-24T21:05:30.436Z,99603.66
2024-02-24T21:07:57.151Z,99595.56
2024-02-24T21:10:24.768Z,99600.47
2024-02-24T21:12:51.420Z,99603.91
2024-02-24T21:15:18.021Z,99600.31
2024-02-24T21:17:47.460Z,99602.28
2024-02-24T21:20:14.086Z,99607.22
2024-02-24T21:22:42.055Z,99600.25
2024-02-24T21:25:13.451Z,99599.00
2024-02-24T21:27:44.153Z,99601.03
2024-02-24T21:30:13.657Z,99606.41
2024-02-24T21:32:41.119Z,99612.97
2024-02-24T21:35:08.814Z,99601.91
2024-02-24T21:37:35.358Z,99606.28
2024-02-24T21:40:02.029Z,99598.66
2024-02-24T21:42:28.630Z,99609.72
2024-02-24T21:45:20.544Z,99607.78
2024-02-24T21:47:47.263Z,99597.03
2024-02-24T21:50:14.068Z,99604.59
2024-02-24T21:52:40.798Z,99599.91
2024-02-24T21:55:07.482Z,99606.53
2024-02-24T21:57:34.150Z,99605.25
2024-02-24T22:00:01.097Z,99608.56
2024-02-24T22:02:27.950Z,99606.19
2024-02-24T22:04:55.236Z,99605.03
2024-02-24T22:07:23.836Z,99609.78
2024-02-24T22:09:51.144Z,99607.66
2024-02-24T22:12:17.954Z,99611.66
2024-02-24T22:14:45.217Z,99609.03
2024-02-24T22:17:12.393Z,99612.78
2024-02-24T22:19:39.343Z,99612.78
2024-02-24T22:22:06.284Z,99623.47
2024-02-24T22:24:33.053Z,99617.13
2024-02-24T22:26:59.917Z,99627.53
2024-02-24T22:29:26.715Z,99626.44
2024-02-24T22:31:54.233Z,99629.75
2024-02-24T22:34:21.062Z,99627.16
2024-02-24T22:36:47.875Z,99639.00
2024-02-24T22:39:14.874Z,99633.25
2024-02-24T22:41:41.605Z,99632.03
2024-02-24T22:44:11.060Z,99634.56
2024-02-24T22:46:40.021Z,99636.75
2024-02-24T22:49:06.826Z,99633.41
2024-02-24T22:51:35.048Z,99635.59
2024-02-24T22:54:01.807Z,99633.75
2024-02-24T22:56:33.567Z,99636.75
2024-02-24T22:59:02.312Z,99633.66
2024-02-24T23:01:32.086Z,99636.09
2024-02-24T23:03:59.425Z,99635.25
2024-02-24T23:06:26.311Z,99646.38
2024-02-24T23:08:53.153Z,99639.53
2024-02-24T23:11:29.399Z,99648.28
2024-02-24T23:14:06.053Z,99648.13
2024-02-24T23:16:32.684Z,99647.88
2024-02-24T23:18:59.998Z,99654.84
2024-02-24T23:21:30.393Z,99653.94
2024-02-24T23:23:57.731Z,99650.44
2024-02-24T23:26:24.671Z,99651.34
2024-02-24T23:28:51.331Z,99644.56
2024-02-24T23:31:17.960Z,99652.06
2024-02-24T23:33:44.881Z,99655.63
2024-02-24T23:36:11.870Z,99652.34
2024-02-24T23:38:38.615Z,99646.16
2024-02-24T23:41:05.385Z,99655.94
2024-02-24T23:43:32.023Z,99659.13
2024-02-24T23:45:58.807Z,99655.94
2024-02-24T23:48:25.608Z,99657.78
2024-02-24T23:50:54.966Z,99664.38
2024-02-24T23:53:21.662Z,99663.47
2024-02-24T23:55:48.302Z,99659.34
2024-02-24T23:58:15.021Z,99651.38
